Time;durP1;ratioP1;P1;durP2;ratioP2;P2;SDS_P1;SDS_P2;PMS_P1;PMS_P2;Temp;Humidity;BMP_temperature;BMP_pressure;BME280_temperature;BME280_humidity;BME280_pressure;Samples;Min_cycle;Max_cycle;Signal;HPM_P1;HPM_P2
2023/03/26 00:01:32;;;;;;;1.60;1.10;;;9.40;98.20;;;;;;5035410;28;20871;-77
2023/03/26 00:04:00;;;;;;;1.50;1.10;;;9.40;98.20;;;;;;5043706;28;20586;-78
2023/03/26 00:06:28;;;;;;;1.50;1.20;;;9.40;98.20;;;;;;5038870;28;20514;-76
2023/03/26 00:08:57;;;;;;;1.57;1.20;;;9.50;98.20;;;;;;5043192;28;20478;-79
2023/03/26 00:11:27;;;;;;;1.50;1.20;;;9.50;98.20;;;;;;5037317;28;20483;-78
2023/03/26 00:13:55;;;;;;;1.50;1.20;;;9.50;98.20;;;;;;5046548;28;20459;-77
2023/03/26 00:16:23;;;;;;;1.50;1.20;;;9.50;98.20;;;;;;5040723;28;21063;-77
2023/03/26 00:18:52;;;;;;;1.57;1.20;;;9.50;98.20;;;;;;5051466;28;20482;-75
2023/03/26 00:21:25;;;;;;;1.57;1.20;;;9.50;98.20;;;;;;5036291;28;20545;-76
2023/03/26 00:23:52;;;;;;;1.53;1.20;;;9.50;98.20;;;;;;5042660;28;20462;-77
2023/03/26 00:26:19;;;;;;;1.50;1.20;;;9.50;98.20;;;;;;5039268;28;20478;-77
2023/03/26 00:28:49;;;;;;;1.60;1.20;;;9.50;98.20;;;;;;5039613;28;20849;-76
2023/03/26 00:31:17;;;;;;;1.53;1.10;;;9.50;98.20;;;;;;5038220;28;20648;-78
2023/03/26 00:33:44;;;;;;;1.60;1.20;;;9.50;98.20;;;;;;5044410;28;20492;-77
2023/03/26 00:36:13;;;;;;;1.50;1.10;;;9.50;98.20;;;;;;5043436;28;20479;-78
2023/03/26 00:38:42;;;;;;;1.50;1.10;;;9.50;98.20;;;;;;5045411;28;20500;-77
2023/03/26 00:41:21;;;;;;;1.57;1.20;;;9.50;98.20;;;;;;5031917;28;20569;-76
2023/03/26 00:43:49;;;;;;;1.50;1.10;;;9.60;98.20;;;;;;5034187;28;20462;-76
2023/03/26 00:46:17;;;;;;;1.50;1.10;;;9.60;98.20;;;;;;5033106;28;20859;-75
2023/03/26 00:48:44;;;;;;;1.57;1.10;;;9.60;98.20;;;;;;5036390;28;20490;-76
2023/03/26 00:51:14;;;;;;;1.53;1.20;;;9.70;98.20;;;;;;5035886;28;20475;-76
2023/03/26 00:53:42;;;;;;;1.50;1.10;;;9.70;98.20;;;;;;5036860;28;20465;-76
2023/03/26 00:56:10;;;;;;;1.60;1.30;;;9.70;98.20;;;;;;5032727;28;20479;-76
2023/03/26 00:58:37;;;;;;;1.53;1.20;;;9.70;98.20;;;;;;5041681;28;20474;-76
2023/03/26 01:01:07;;;;;;;1.73;1.63;;;9.60;98.20;;;;;;5031293;28;20474;-76
2023/03/26 01:03:37;;;;;;;1.50;1.20;;;9.60;98.20;;;;;;5042880;28;20459;-76
2023/03/26 01:06:06;;;;;;;1.57;1.17;;;9.60;98.20;;;;;;5037610;28;20613;-77
2023/03/26 01:08:37;;;;;;;1.57;1.20;;;9.50;98.20;;;;;;5044075;28;20533;-76
2023/03/26 01:11:12;;;;;;;1.50;1.20;;;9.50;98.20;;;;;;5036625;28;20544;-79
2023/03/26 01:13:43;;;;;;;1.50;1.20;;;9.40;98.20;;;;;;5038996;28;21260;-75
2023/03/26 01:16:22;;;;;;;1.50;1.20;;;9.40;98.20;;;;;;5041336;28;20514;-77
2023/03/26 01:18:51;;;;;;;1.50;1.20;;;9.30;98.20;;;;;;5040403;28;20558;-78
2023/03/26 01:21:22;;;;;;;1.50;1.10;;;9.30;98.20;;;;;;5043515;28;20536;-77
2023/03/26 01:24:03;;;;;;;1.60;1.20;;;9.30;98.20;;;;;;5040438;28;20463;-77
2023/03/26 01:26:52;;;;;;;1.50;1.20;;;9.20;98.20;;;;;;5033904;28;20518;-77
2023/03/26 01:29:26;;;;;;;1.50;1.10;;;9.20;98.20;;;;;;5043609;28;20542;-79
2023/03/26 01:32:00;;;;;;;1.50;1.17;;;9.20;98.20;;;;;;5033606;28;20485;-77
2023/03/26 01:34:36;;;;;;;1.53;1.20;;;9.10;98.20;;;;;;5047949;28;20461;-78
2023/03/26 01:37:14;;;;;;;1.50;1.20;;;9.10;98.20;;;;;;5031583;28;20553;-77
2023/03/26 01:39:52;;;;;;;1.53;1.10;;;9.00;98.20;;;;;;5047889;28;20759;-77
2023/03/26 01:42:25;;;;;;;1.50;1.20;;;9.00;98.20;;;;;;5026453;28;20719;-78
2023/03/26 01:44:57;;;;;;;1.57;1.10;;;9.00;98.20;;;;;;5050010;28;20496;-77
2023/03/26 01:47:25;;;;;;;1.50;1.10;;;8.90;98.20;;;;;;5025643;28;20485;-81
2023/03/26 01:49:52;;;;;;;1.60;1.20;;;8.80;98.20;;;;;;5049429;28;20474;-78
2023/03/26 01:52:24;;;;;;;1.50;1.13;;;8.80;98.20;;;;;;5030006;28;20566;-79
2023/03/26 01:54:53;;;;;;;1.50;1.10;;;8.80;98.20;;;;;;5039056;28;20470;-78
2023/03/26 01:57:30;;;;;;;1.60;1.20;;;8.70;98.20;;;;;;5027490;28;20487;-79
2023/03/26 02:00:19;;;;;;;1.60;1.40;;;8.70;98.20;;;;;;5041497;28;20454;-78
2023/03/26 02:03:02;;;;;;;1.57;1.20;;;8.60;98.20;;;;;;5021370;28;20521;-77
2023/03/26 02:05:33;;;;;;;1.50;1.10;;;8.60;98.20;;;;;;5047408;28;20489;-77
2023/03/26 02:08:10;;;;;;;1.57;1.17;;;8.60;98.20;;;;;;5025098;28;20885;-79
2023/03/26 02:10:42;;;;;;;1.53;1.23;;;8.60;98.20;;;;;;5047979;28;20462;-77
2023/03/26 02:13:10;;;;;;;1.57;1.20;;;8.50;98.20;;;;;;5035501;28;20485;-79
2023/03/26 02:15:37;;;;;;;1.57;1.20;;;8.50;98.20;;;;;;5053195;28;20465;-77
2023/03/26 02:18:04;;;;;;;1.60;1.30;;;8.40;98.20;;;;;;5038127;28;20478;-81
2023/03/26 02:20:31;;;;;;;1.57;1.23;;;8.40;98.20;;;;;;5045929;28;21007;-79
2023/03/26 02:22:58;;;;;;;1.53;1.13;;;8.40;98.20;;;;;;5023701;28;20490;-78
2023/03/26 02:25:25;;;;;;;1.57;1.30;;;8.40;98.20;;;;;;5050323;28;21199;-79
2023/03/26 02:27:54;;;;;;;1.50;1.20;;;8.30;98.20;;;;;;5024730;28;20497;-79
2023/03/26 02:30:24;;;;;;;1.60;1.30;;;8.30;98.20;;;;;;5041993;28;20463;-77
2023/03/26 02:32:52;;;;;;;1.60;1.30;;;8.30;98.20;;;;;;5023275;28;21036;-78
2023/03/26 02:35:21;;;;;;;1.57;1.20;;;8.30;98.20;;;;;;5047606;28;20462;-78
2023/03/26 02:37:49;;;;;;;1.60;1.20;;;8.30;98.20;;;;;;5025723;28;20494;-78
2023/03/26 02:40:17;;;;;;;1.53;1.20;;;8.40;98.20;;;;;;5053956;28;20459;-80
2023/03/26 02:42:44;;;;;;;1.60;1.30;;;8.40;98.20;;;;;;5023480;28;20475;-77
2023/03/26 02:45:13;;;;;;;1.60;1.20;;;8.30;98.20;;;;;;5048959;28;20474;-80
2023/03/26 02:47:39;;;;;;;1.57;1.20;;;8.40;98.20;;;;;;5025763;28;20487;-77
2023/03/26 02:50:07;;;;;;;1.57;1.20;;;8.40;98.20;;;;;;5051106;28;21130;-76
2023/03/26 02:52:34;;;;;;;1.60;1.30;;;8.40;98.20;;;;;;5027267;28;20703;-76
2023/03/26 02:55:02;;;;;;;1.50;1.13;;;8.40;98.20;;;;;;5048349;28;20454;-77
2023/03/26 02:57:28;;;;;;;1.60;1.40;;;8.40;98.20;;;;;;5027834;28;20475;-77
2023/03/26 02:59:56;;;;;;;1.60;1.23;;;8.40;98.20;;;;;;5048577;28;20458;-75
2023/03/26 03:02:27;;;;;;;1.60;1.30;;;8.40;98.20;;;;;;5025118;28;20505;-78
2023/03/26 03:05:00;;;;;;;1.50;1.10;;;8.40;98.20;;;;;;5052057;28;20545;-76
2023/03/26 03:07:27;;;;;;;1.57;1.20;;;8.40;98.20;;;;;;5033733;28;20703;-79
2023/03/26 03:09:54;;;;;;;1.50;1.20;;;8.40;98.20;;;;;;5053167;28;21094;-76
2023/03/26 03:12:21;;;;;;;1.57;1.30;;;8.40;98.20;;;;;;5029365;28;20477;-80
2023/03/26 03:14:48;;;;;;;1.57;1.30;;;8.40;98.20;;;;;;5044293;28;20454;-77
2023/03/26 03:17:15;;;;;;;1.53;1.20;;;8.40;98.20;;;;;;5030020;28;20557;-78
2023/03/26 03:19:44;;;;;;;1.50;1.20;;;8.40;98.20;;;;;;5047351;28;21212;-80
2023/03/26 03:22:10;;;;;;;1.53;1.20;;;8.40;98.20;;;;;;5028544;28;20483;-76
2023/03/26 03:24:38;;;;;;;1.50;1.20;;;8.50;98.20;;;;;;5049935;28;20450;-80
2023/03/26 03:27:05;;;;;;;1.60;1.30;;;8.50;98.20;;;;;;5033197;28;20558;-79
2023/03/26 03:29:32;;;;;;;1.60;1.30;;;8.50;98.20;;;;;;5046547;28;20896;-78
2023/03/26 03:31:59;;;;;;;1.60;1.30;;;8.50;98.20;;;;;;5035129;28;20488;-78
2023/03/26 03:34:27;;;;;;;1.57;1.30;;;8.60;98.20;;;;;;5047641;28;20905;-78
2023/03/26 03:36:55;;;;;;;1.50;1.20;;;8.60;98.20;;;;;;5033717;28;20514;-77
2023/03/26 03:39:22;;;;;;;1.50;1.20;;;8.60;98.20;;;;;;5042139;28;21014;-81
2023/03/26 03:41:49;;;;;;;1.57;1.20;;;8.60;98.20;;;;;;5032465;28;20485;-77
2023/03/26 03:44:16;;;;;;;1.57;1.20;;;8.60;98.20;;;;;;5043707;28;20481;-78
2023/03/26 03:46:43;;;;;;;1.60;1.30;;;8.60;98.20;;;;;;5036334;28;20490;-77
2023/03/26 03:49:10;;;;;;;1.57;1.20;;;8.70;98.20;;;;;;5044772;28;20510;-78
2023/03/26 03:51:37;;;;;;;1.70;1.60;;;8.70;98.20;;;;;;5037387;28;20490;-79
2023/03/26 03:54:05;;;;;;;1.60;1.30;;;8.70;98.20;;;;;;5045082;28;20498;-80
2023/03/26 03:56:32;;;;;;;1.57;1.20;;;8.80;98.20;;;;;;5039015;28;20479;-78
2023/03/26 03:58:59;;;;;;;1.60;1.30;;;8.80;98.20;;;;;;5045296;28;20514;-78
2023/03/26 04:01:29;;;;;;;1.60;1.27;;;8.80;98.20;;;;;;5037057;28;20514;-78
2023/03/26 04:03:56;;;;;;;1.60;1.30;;;8.80;98.20;;;;;;5045270;28;20523;-80
2023/03/26 04:06:24;;;;;;;1.60;1.20;;;8.80;98.20;;;;;;5037423;28;20487;-76
2023/03/26 04:08:51;;;;;;;1.57;1.20;;;8.80;98.20;;;;;;5039818;28;20602;-77
2023/03/26 04:11:19;;;;;;;1.50;1.20;;;8.80;98.20;;;;;;5038231;28;20555;-77
2023/03/26 04:13:46;;;;;;;1.53;1.10;;;8.80;98.20;;;;;;5040513;28;20508;-77
2023/03/26 04:16:13;;;;;;;1.60;1.20;;;8.80;98.20;;;;;;5038784;28;20606;-78
2023/03/26 04:18:40;;;;;;;1.53;1.20;;;8.90;98.20;;;;;;5033473;28;20882;-76
2023/03/26 04:21:07;;;;;;;1.60;1.20;;;8.90;98.20;;;;;;5038342;28;20466;-78
2023/03/26 04:23:34;;;;;;;1.53;1.17;;;8.90;98.20;;;;;;5034149;28;20497;-77
2023/03/26 04:26:03;;;;;;;1.60;1.20;;;8.90;98.20;;;;;;5038402;28;20482;-78
2023/03/26 04:28:40;;;;;;;1.57;1.20;;;8.90;98.20;;;;;;5037353;28;20506;-77
2023/03/26 04:31:12;;;;;;;1.50;1.20;;;8.90;98.20;;;;;;5035033;28;20937;-76
2023/03/26 04:33:39;;;;;;;1.50;1.20;;;8.90;98.20;;;;;;5036533;28;20841;-77
2023/03/26 04:36:07;;;;;;;1.50;1.10;;;8.90;98.20;;;;;;5039096;28;20463;-77
2023/03/26 04:38:40;;;;;;;1.60;1.23;;;8.90;98.20;;;;;;5036854;28;20482;-77
2023/03/26 04:41:10;;;;;;;1.50;1.10;;;8.90;98.20;;;;;;5037186;28;20572;-78
2023/03/26 04:43:46;;;;;;;1.60;1.20;;;8.90;98.20;;;;;;5037982;28;20526;-79
2023/03/26 04:46:12;;;;;;;1.60;1.30;;;8.90;98.20;;;;;;5037638;28;20529;-78
2023/03/26 04:48:39;;;;;;;1.57;1.20;;;8.90;98.20;;;;;;5039003;28;20489;-78
2023/03/26 04:51:08;;;;;;;1.60;1.30;;;8.90;98.20;;;;;;5038228;28;21370;-77
2023/03/26 04:53:36;;;;;;;1.57;1.20;;;8.90;98.20;;;;;;5036688;28;20470;-79
2023/03/26 04:56:09;;;;;;;1.50;1.17;;;8.90;98.20;;;;;;5038234;28;20489;-78
2023/03/26 04:58:36;;;;;;;1.57;1.20;;;8.90;98.20;;;;;;5040352;28;20560;-78
2023/03/26 05:01:06;;;;;;;1.50;1.10;;;8.80;98.20;;;;;;5040165;28;20454;-81
2023/03/26 05:03:32;;;;;;;1.57;1.23;;;8.80;98.20;;;;;;5036947;28;20487;-79
2023/03/26 05:06:00;;;;;;;1.60;1.20;;;8.70;98.20;;;;;;5042589;28;20490;-77
2023/03/26 05:08:28;;;;;;;1.53;1.20;;;8.80;98.20;;;;;;5035262;28;20482;-80
2023/03/26 05:10:55;;;;;;;1.57;1.20;;;8.70;98.20;;;;;;5041950;28;20476;-78
2023/03/26 05:13:22;;;;;;;1.50;1.10;;;8.70;98.20;;;;;;5034778;28;20462;-79
2023/03/26 05:15:49;;;;;;;1.50;1.10;;;8.70;98.20;;;;;;5043244;28;20455;-78
2023/03/26 05:18:18;;;;;;;1.60;1.40;;;8.70;98.20;;;;;;5033493;28;20557;-76
2023/03/26 05:20:45;;;;;;;1.60;1.20;;;8.70;98.20;;;;;;5049988;28;20461;-77
2023/03/26 05:23:12;;;;;;;1.50;1.20;;;8.70;98.20;;;;;;5020909;28;21055;-76
2023/03/26 05:25:40;;;;;;;1.50;1.10;;;8.70;98.20;;;;;;5051309;28;20465;-77
2023/03/26 05:28:07;;;;;;;1.53;1.20;;;8.70;98.20;;;;;;5024485;28;20483;-77
2023/03/26 05:30:33;;;;;;;1.60;1.30;;;8.70;98.20;;;;;;5051492;28;20522;-78
2023/03/26 05:33:03;;;;;;;1.60;1.30;;;8.70;98.20;;;;;;5024048;28;20609;-79
2023/03/26 05:35:31;;;;;;;1.60;1.27;;;8.80;98.20;;;;;;5053399;28;20455;-81
2023/03/26 05:37:58;;;;;;;1.50;1.10;;;8.80;98.20;;;;;;5025573;28;21041;-79
2023/03/26 05:40:36;;;;;;;1.53;1.10;;;8.80;98.20;;;;;;5049882;28;20505;-77
2023/03/26 05:43:03;;;;;;;1.57;1.20;;;8.80;98.20;;;;;;5019184;28;20483;-79
2023/03/26 05:45:30;;;;;;;1.60;1.20;;;8.80;98.20;;;;;;5051072;28;20470;-78
2023/03/26 05:47:57;;;;;;;1.60;1.20;;;8.80;98.20;;;;;;5027133;28;20483;-78
2023/03/26 05:50:24;;;;;;;1.60;1.30;;;8.80;98.20;;;;;;5049339;28;20473;-78
2023/03/26 05:52:52;;;;;;;1.50;1.10;;;8.80;98.20;;;;;;5020924;28;20490;-77
2023/03/26 05:55:20;;;;;;;1.60;1.30;;;8.80;98.20;;;;;;5049940;28;20454;-76
2023/03/26 05:57:47;;;;;;;1.53;1.20;;;8.80;98.20;;;;;;5022063;28;20487;-79
2023/03/26 06:00:15;;;;;;;1.50;1.10;;;8.80;98.20;;;;;;5051638;28;20469;-78
2023/03/26 06:02:42;;;;;;;1.53;1.20;;;8.80;98.20;;;;;;5021961;28;21005;-79
2023/03/26 06:05:11;;;;;;;1.50;1.10;;;8.80;98.20;;;;;;5051351;28;20454;-78
2023/03/26 06:07:38;;;;;;;1.53;1.20;;;8.80;98.20;;;;;;5027426;28;20483;-80
2023/03/26 06:10:08;;;;;;;1.50;1.20;;;8.80;98.20;;;;;;5051734;28;20535;-80
2023/03/26 06:12:35;;;;;;;1.57;1.20;;;8.80;98.20;;;;;;5025697;28;21102;-78
2023/03/26 06:15:02;;;;;;;1.50;1.20;;;8.70;98.20;;;;;;5045999;28;20482;-80
2023/03/26 06:17:29;;;;;;;1.50;1.20;;;8.70;98.20;;;;;;5031478;28;20475;-79
2023/03/26 06:19:56;;;;;;;1.53;1.20;;;8.70;98.20;;;;;;5049668;28;20474;-80
2023/03/26 06:22:35;;;;;;;1.57;1.23;;;8.70;98.20;;;;;;5037330;28;20466;-76
2023/03/26 06:25:02;;;;;;;1.57;1.20;;;8.60;98.20;;;;;;5048679;28;20972;-78
2023/03/26 06:27:31;;;;;;;1.57;1.20;;;8.60;98.20;;;;;;5027465;28;20483;-78
2023/03/26 06:29:57;;;;;;;1.57;1.20;;;8.60;98.20;;;;;;5050906;28;20454;-76
2023/03/26 06:32:24;;;;;;;1.50;1.20;;;8.60;98.20;;;;;;5020819;28;20568;-79
2023/03/26 06:34:51;;;;;;;1.60;1.30;;;8.60;98.20;;;;;;5046058;28;20466;-77
2023/03/26 06:37:18;;;;;;;1.50;1.20;;;8.60;98.20;;;;;;5026988;28;20479;-78
2023/03/26 06:39:52;;;;;;;1.53;1.20;;;8.60;98.20;;;;;;5048318;28;21072;-77
2023/03/26 06:42:19;;;;;;;1.53;1.20;;;8.60;98.20;;;;;;5026332;28;20480;-79
2023/03/26 06:44:47;;;;;;;1.50;1.20;;;8.50;98.20;;;;;;5043471;28;20525;-80
2023/03/26 06:47:14;;;;;;;1.50;1.10;;;8.60;98.20;;;;;;5038695;28;20470;-78
2023/03/26 06:49:41;;;;;;;1.60;1.23;;;8.60;98.20;;;;;;5054008;28;20485;-78
2023/03/26 06:52:08;;;;;;;1.60;1.30;;;8.60;98.20;;;;;;5042317;28;21085;-77
2023/03/26 06:54:35;;;;;;;2.27;2.07;;;8.60;98.20;;;;;;5051825;28;20468;-76
2023/03/26 06:57:02;;;;;;;1.60;1.20;;;8.60;98.20;;;;;;5037155;28;20478;-77
2023/03/26 06:59:29;;;;;;;1.50;1.10;;;8.60;98.20;;;;;;5049363;28;20477;-79
2023/03/26 07:01:57;;;;;;;1.57;1.20;;;8.60;98.20;;;;;;5027865;28;20507;-76
2023/03/26 07:04:24;;;;;;;1.57;1.23;;;8.70;98.20;;;;;;5043639;28;20465;-78
2023/03/26 07:06:51;;;;;;;1.60;1.37;;;8.70;98.20;;;;;;5038904;28;21128;-78
2023/03/26 07:09:18;;;;;;;1.57;1.17;;;8.70;98.20;;;;;;5045057;28;20482;-77
2023/03/26 07:11:45;;;;;;;1.60;1.20;;;8.70;98.20;;;;;;5035881;28;20506;-77
2023/03/26 07:14:12;;;;;;;1.57;1.20;;;8.70;98.20;;;;;;5044922;28;20463;-76
2023/03/26 07:16:39;;;;;;;1.53;1.20;;;8.70;98.20;;;;;;5031408;28;20484;-79
2023/03/26 07:19:07;;;;;;;1.57;1.23;;;8.70;98.20;;;;;;5040474;28;20490;-79
2023/03/26 07:21:34;;;;;;;1.60;1.20;;;8.70;98.20;;;;;;5033171;28;20581;-76
2023/03/26 07:24:02;;;;;;;1.53;1.10;;;8.80;98.20;;;;;;5037696;28;20486;-77
2023/03/26 07:26:36;;;;;;;1.50;1.10;;;8.80;98.20;;;;;;5034488;28;20490;-77
2023/03/26 07:29:13;;;;;;;1.53;1.20;;;8.80;98.20;;;;;;5037338;28;20483;-77
2023/03/26 07:31:44;;;;;;;1.57;1.10;;;8.80;98.20;;;;;;5039069;28;21021;-78
2023/03/26 07:34:29;;;;;;;1.60;1.20;;;8.80;98.20;;;;;;5049817;28;21147;-77
2023/03/26 07:37:02;;;;;;;1.60;1.30;;;8.70;98.20;;;;;;5038823;28;20519;-78
2023/03/26 07:39:42;;;;;;;1.57;1.20;;;8.70;98.20;;;;;;5049067;28;20846;-79
2023/03/26 07:42:23;;;;;;;1.53;1.17;;;8.70;98.20;;;;;;5038518;28;20491;-81
2023/03/26 07:44:58;;;;;;;1.53;1.20;;;8.70;98.20;;;;;;5048056;28;20514;-78
2023/03/26 07:47:30;;;;;;;1.57;1.10;;;8.70;98.20;;;;;;5014980;28;21195;-77
2023/03/26 07:49:59;;;;;;;1.53;1.17;;;8.70;98.20;;;;;;5049288;28;20630;-77
2023/03/26 07:52:27;;;;;;;1.50;1.10;;;8.70;98.20;;;;;;5023438;28;21077;-80
2023/03/26 07:54:55;;;;;;;1.60;1.37;;;8.70;98.20;;;;;;5048375;28;20500;-78
2023/03/26 07:57:34;;;;;;;1.60;1.30;;;8.70;98.20;;;;;;5033697;28;20471;-79
2023/03/26 08:00:10;;;;;;;1.50;1.20;;;8.60;98.20;;;;;;5052259;28;20481;-80
2023/03/26 08:03:15;;;;;;;1.53;1.10;;;8.60;98.20;;;;;;5029245;28;21157;-77
2023/03/26 08:05:52;;;;;;;1.57;1.13;;;8.60;98.20;;;;;;5056359;28;20486;-79
2023/03/26 08:08:23;;;;;;;1.50;1.20;;;8.70;98.20;;;;;;5027815;28;20497;-78
2023/03/26 08:11:06;;;;;;;1.60;1.23;;;8.70;98.20;;;;;;5044457;28;20466;-79
2023/03/26 08:13:41;;;;;;;1.60;1.30;;;8.70;98.20;;;;;;5044333;28;20553;-77
2023/03/26 08:16:12;;;;;;;1.60;1.20;;;8.80;98.20;;;;;;5037354;28;20483;-77
2023/03/26 08:18:49;;;;;;;1.60;1.30;;;8.70;98.20;;;;;;5029728;28;20644;-75
2023/03/26 08:21:20;;;;;;;1.53;1.10;;;8.70;98.20;;;;;;5029913;28;20501;-76
2023/03/26 08:24:00;;;;;;;1.57;1.17;;;8.70;98.20;;;;;;5026422;28;20557;-76
2023/03/26 08:26:34;;;;;;;1.57;1.20;;;8.70;98.20;;;;;;5026857;28;21131;-78
2023/03/26 08:29:14;;;;;;;1.50;1.10;;;8.70;98.20;;;;;;5041157;28;20529;-82
2023/03/26 08:31:43;;;;;;;1.60;1.30;;;8.60;98.20;;;;;;5031879;28;20483;-78
2023/03/26 08:34:11;;;;;;;1.50;1.10;;;8.70;98.20;;;;;;5037636;28;20486;-77
2023/03/26 08:36:40;;;;;;;1.53;1.10;;;8.70;98.20;;;;;;5024078;28;20491;-78
2023/03/26 08:39:07;;;;;;;1.57;1.20;;;8.60;98.20;;;;;;5037717;28;20506;-76
2023/03/26 08:42:13;;;;;;;1.60;1.20;;;8.60;98.20;;;;;;5040261;28;20482;-78
2023/03/26 08:45:19;;;;;;;1.50;1.10;;;8.60;98.20;;;;;;5036086;28;21674;-81
2023/03/26 08:48:28;;;;;;;1.60;1.20;;;8.60;98.20;;;;;;5028797;28;20482;-81
2023/03/26 08:51:26;;;;;;;1.60;1.20;;;8.60;98.20;;;;;;5035823;28;20466;-78
2023/03/26 08:54:30;;;;;;;1.70;1.60;;;8.60;98.20;;;;;;5050007;28;20458;-79
2023/03/26 08:57:15;;;;;;;3.23;3.03;;;8.60;98.20;;;;;;5027483;28;20486;-78
2023/03/26 09:00:12;;;;;;;1.60;1.20;;;8.60;98.20;;;;;;5048268;28;20510;-78
2023/03/26 09:03:07;;;;;;;1.53;1.20;;;8.50;98.20;;;;;;5019023;28;20491;-79
2023/03/26 09:06:06;;;;;;;1.60;1.20;;;8.50;98.20;;;;;;5055331;28;20561;-78
2023/03/26 09:09:07;;;;;;;1.50;1.20;;;8.50;98.20;;;;;;5009574;28;20491;-78
2023/03/26 09:12:11;;;;;;;1.60;1.17;;;8.50;98.20;;;;;;5039448;28;20486;-80
2023/03/26 09:15:26;;;;;;;1.53;1.20;;;8.40;98.20;;;;;;5023132;28;20466;-77
2023/03/26 09:18:36;;;;;;;1.60;1.10;;;8.40;98.20;;;;;;5010568;28;21004;-76
2023/03/26 09:21:41;;;;;;;1.50;1.10;;;8.40;98.20;;;;;;5028747;28;20508;-77
2023/03/26 09:24:44;;;;;;;1.60;1.17;;;8.40;98.20;;;;;;4998487;28;20458;-77
2023/03/26 09:27:35;;;;;;;1.60;1.43;;;8.40;98.20;;;;;;5005627;28;21036;-76
2023/03/26 09:30:35;;;;;;;1.60;1.20;;;8.40;98.20;;;;;;5021604;28;20462;-76
2023/03/26 09:33:28;;;;;;;1.60;1.30;;;8.30;98.20;;;;;;5021869;28;20971;-75
2023/03/26 09:36:35;;;;;;;1.60;1.30;;;8.30;98.20;;;;;;5032729;28;20962;-75
2023/03/26 09:39:09;;;;;;;1.57;1.20;;;8.20;98.20;;;;;;5025113;28;20514;-76
2023/03/26 09:41:43;;;;;;;1.60;1.40;;;8.20;98.20;;;;;;5023711;28;20851;-76
2023/03/26 09:44:40;;;;;;;1.70;1.50;;;8.30;98.20;;;;;;5017476;28;20474;-76
2023/03/26 09:47:42;;;;;;;1.60;1.20;;;8.30;98.20;;;;;;4995235;28;20481;-76
2023/03/26 09:50:36;;;;;;;1.53;1.20;;;8.30;98.20;;;;;;5036776;28;20497;-76
2023/03/26 09:53:18;;;;;;;1.57;1.17;;;8.30;98.20;;;;;;5001401;28;21327;-76
2023/03/26 09:56:18;;;;;;;1.50;1.10;;;8.30;98.20;;;;;;5036721;28;20469;-76
2023/03/26 09:59:19;;;;;;;1.60;1.30;;;8.30;98.20;;;;;;5007552;28;20478;-76
2023/03/26 10:01:58;;;;;;;1.57;1.17;;;8.30;98.20;;;;;;5014875;28;20923;-75
2023/03/26 10:04:47;;;;;;;1.60;1.30;;;8.30;98.20;;;;;;5028978;28;20464;-76
2023/03/26 10:07:34;;;;;;;1.57;1.20;;;8.30;98.20;;;;;;5010266;28;20515;-76
2023/03/26 10:10:06;;;;;;;1.60;1.30;;;8.30;98.20;;;;;;5032824;28;20474;-76
2023/03/26 10:12:37;;;;;;;1.53;1.10;;;8.30;98.20;;;;;;5025822;28;20490;-76
2023/03/26 10:15:28;;;;;;;1.57;1.20;;;8.30;98.20;;;;;;5040564;28;20463;-76
2023/03/26 10:18:09;;;;;;;1.57;1.20;;;8.30;98.20;;;;;;5030499;28;20489;-76
2023/03/26 10:27:08;;;;;;;1.50;1.10;;;8.40;98.20;;;;;;5015177;28;20794;-76
2023/03/26 10:29:54;;;;;;;1.53;1.13;;;8.40;98.20;;;;;;5032750;28;20522;-76
2023/03/26 10:32:32;;;;;;;1.53;1.10;;;8.40;98.20;;;;;;5029658;28;20485;-76
2023/03/26 10:35:20;;;;;;;;;;;;;;;;;;;;;
2023/03/26 10:38:01;;;;;;;1.50;1.10;;;8.40;98.20;;;;;;5007270;28;20479;-76
2023/03/26 10:40:32;;;;;;;1.60;1.20;;;8.50;98.20;;;;;;5041060;28;20519;-76
2023/03/26 10:43:42;;;;;;;1.50;1.10;;;8.60;98.20;;;;;;5029331;28;21083;-77
2023/03/26 10:46:34;;;;;;;1.53;1.20;;;8.70;98.20;;;;;;4965873;28;20477;-77
2023/03/26 10:49:36;;;;;;;1.57;1.10;;;8.80;98.20;;;;;;4977640;28;21163;-77
2023/03/26 10:52:08;;;;;;;1.53;1.20;;;8.80;98.20;;;;;;4951539;28;21027;-76
2023/03/26 10:54:42;;;;;;;1.50;1.10;;;8.80;98.20;;;;;;5040721;28;20461;-76
2023/03/26 10:57:19;;;;;;;1.57;1.20;;;8.80;98.20;;;;;;5034172;28;20485;-77
2023/03/26 10:59:46;;;;;;;1.60;1.30;;;8.80;98.20;;;;;;5039101;28;20478;-76
2023/03/26 11:02:27;;;;;;;1.60;1.20;;;8.80;98.20;;;;;;5026594;28;20964;-76
2023/03/26 11:05:02;;;;;;;1.60;1.23;;;8.90;98.20;;;;;;5040772;28;20908;-75
2023/03/26 11:07:38;;;;;;;1.57;1.10;;;8.90;98.20;;;;;;5026606;28;20505;-75
2023/03/26 11:10:11;;;;;;;1.57;1.10;;;8.90;98.20;;;;;;5036300;28;20516;-76
2023/03/26 11:12:44;;;;;;;1.73;1.47;;;9.00;98.20;;;;;;5020888;28;20808;-75
2023/03/26 11:15:22;;;;;;;1.60;1.20;;;9.00;98.20;;;;;;5041914;28;20458;-75
2023/03/26 11:17:58;;;;;;;1.60;1.10;;;9.00;98.20;;;;;;5022469;28;20490;-76
2023/03/26 11:20:51;;;;;;;1.50;1.10;;;9.00;98.20;;;;;;5040900;28;20462;-75
2023/03/26 11:23:38;;;;;;;1.50;1.10;;;9.00;98.20;;;;;;5015220;28;21004;-76
2023/03/26 11:26:13;;;;;;;1.60;1.20;;;9.10;98.20;;;;;;5028308;28;20475;-75
2023/03/26 11:28:54;;;;;;;2.00;1.80;;;9.10;98.20;;;;;;5022772;28;20789;-77
2023/03/26 11:31:29;;;;;;;1.57;1.10;;;9.10;98.20;;;;;;5030914;28;20482;-76
2023/03/26 11:34:02;;;;;;;1.53;1.10;;;9.00;98.20;;;;;;5037936;28;20473;-76
2023/03/26 11:36:43;;;;;;;1.57;1.10;;;9.10;98.20;;;;;;5024707;28;20561;-75
2023/03/26 11:39:15;;;;;;;1.60;1.20;;;9.20;98.20;;;;;;5030752;28;21171;-77
2023/03/26 11:41:45;;;;;;;1.53;1.10;;;9.20;98.20;;;;;;5027349;28;20483;-77
2023/03/26 11:44:21;;;;;;;1.50;1.10;;;9.30;98.20;;;;;;5038987;28;20964;-76
2023/03/26 11:46:53;;;;;;;1.53;1.20;;;9.40;98.20;;;;;;5033491;28;20481;-76
2023/03/26 11:49:25;;;;;;;1.53;1.10;;;9.40;98.20;;;;;;5034541;28;20636;-74
2023/03/26 11:51:53;;;;;;;1.50;1.10;;;9.40;98.20;;;;;;5021962;28;20478;-74
2023/03/26 11:54:24;;;;;;;1.57;1.17;;;9.40;98.20;;;;;;5037855;28;20469;-74
2023/03/26 11:56:53;;;;;;;1.60;1.20;;;9.40;98.20;;;;;;5018296;28;20486;-74
2023/03/26 11:59:27;;;;;;;1.60;1.20;;;9.40;98.20;;;;;;5033500;28;20516;-74
2023/03/26 12:01:59;;;;;;;1.50;1.10;;;9.50;98.20;;;;;;5025527;28;20872;-74
2023/03/26 12:04:28;;;;;;;1.60;1.20;;;9.50;98.20;;;;;;5035245;28;20476;-74
2023/03/26 12:06:58;;;;;;;1.60;1.20;;;9.60;98.20;;;;;;5021410;28;20476;-74
2023/03/26 12:09:26;;;;;;;1.60;1.10;;;9.60;98.20;;;;;;5029774;28;20505;-74
2023/03/26 12:11:59;;;;;;;1.53;1.10;;;9.60;98.20;;;;;;5021726;28;20632;-74
2023/03/26 12:14:29;;;;;;;1.57;1.10;;;9.70;98.20;;;;;;5034198;28;20489;-74
2023/03/26 12:17:01;;;;;;;1.57;1.10;;;9.70;98.20;;;;;;5014448;28;20928;-74
2023/03/26 12:19:36;;;;;;;1.60;1.40;;;9.70;98.20;;;;;;5029532;28;20905;-74
2023/03/26 12:22:28;;;;;;;1.50;1.10;;;9.70;98.20;;;;;;5022639;28;20478;-74
2023/03/26 12:25:15;;;;;;;1.60;1.20;;;9.70;98.20;;;;;;5039273;28;20987;-74
2023/03/26 12:28:01;;;;;;;1.50;1.07;;;9.80;98.20;;;;;;5026400;28;20496;-74
2023/03/26 12:30:32;;;;;;;1.60;1.10;;;9.80;98.20;;;;;;5037958;28;20485;-74
2023/03/26 12:33:03;;;;;;;1.60;1.20;;;9.90;98.20;;;;;;5025968;28;20933;-74
2023/03/26 12:35:33;;;;;;;1.57;1.10;;;10.00;98.20;;;;;;5037292;28;20488;-74
2023/03/26 12:38:20;;;;;;;1.50;1.00;;;10.10;98.20;;;;;;5019096;28;20491;-74
2023/03/26 12:40:51;;;;;;;1.60;1.10;;;10.30;98.20;;;;;;5030795;28;20550;-74
2023/03/26 12:43:23;;;;;;;1.60;1.10;;;10.40;98.20;;;;;;5016072;28;20524;-73
2023/03/26 12:45:54;;;;;;;1.57;1.00;;;10.50;98.20;;;;;;5026246;28;20516;-74
2023/03/26 12:48:24;;;;;;;1.60;1.10;;;10.60;98.20;;;;;;5033648;28;20490;-74
2023/03/26 12:51:05;;;;;;;1.60;1.13;;;10.60;98.20;;;;;;5026146;28;20469;-74
2023/03/26 12:53:42;;;;;;;1.57;1.10;;;10.80;98.20;;;;;;5024268;28;20467;-74
2023/03/26 12:56:20;;;;;;;1.60;1.10;;;11.00;98.20;;;;;;5026012;28;20988;-74
2023/03/26 12:59:25;;;;;;;1.60;1.10;;;11.10;98.20;;;;;;5032506;28;20850;-76
2023/03/26 13:02:04;;;;;;;1.50;1.07;;;11.10;98.20;;;;;;4958618;28;20472;-79
2023/03/26 13:04:58;;;;;;;1.57;1.00;;;11.10;98.20;;;;;;5030925;28;20474;-76
2023/03/26 13:07:48;;;;;;;1.53;1.00;;;11.20;98.20;;;;;;5020063;28;20526;-74
2023/03/26 13:10:36;;;;;;;1.60;1.00;;;11.30;98.20;;;;;;5039198;28;20493;-75
2023/03/26 13:13:22;;;;;;;1.50;1.00;;;11.40;98.20;;;;;;5019591;28;20475;-74
2023/03/26 13:15:51;;;;;;;1.57;1.03;;;11.60;98.20;;;;;;5027871;28;20467;-75
2023/03/26 13:18:27;;;;;;;1.57;1.10;;;11.60;98.20;;;;;;5015561;28;20489;-75
2023/03/26 13:21:01;;;;;;;1.57;1.03;;;11.70;98.20;;;;;;5026730;28;20955;-75
2023/03/26 13:23:39;;;;;;;1.60;1.10;;;11.80;98.20;;;;;;5031013;28;20476;-74
2023/03/26 13:26:18;;;;;;;1.53;1.00;;;11.90;98.20;;;;;;5025196;28;20565;-75
2023/03/26 13:28:54;;;;;;;1.53;1.00;;;12.00;98.20;;;;;;5018420;28;20481;-75
2023/03/26 13:31:27;;;;;;;1.60;1.10;;;12.10;98.20;;;;;;5020928;28;20466;-75
2023/03/26 13:34:01;;;;;;;1.57;1.00;;;12.20;98.20;;;;;;5019068;28;20467;-75
2023/03/26 13:36:45;;;;;;;1.53;1.10;;;12.20;98.20;;;;;;5025528;28;21017;-75
2023/03/26 13:39:27;;;;;;;1.57;1.10;;;12.10;98.20;;;;;;5035665;28;21008;-76
2023/03/26 13:42:32;;;;;;;1.57;1.10;;;12.00;98.20;;;;;;5024989;28;20914;-77